North Brunswick, New Jersey
Current Conditions -  °F | °C
As of 4:53 AM on Sunday 26 Oct 2014 (Local Time) from KSMQ Reporting Station
Broken Clouds Broken Clouds  
Wind Chill: 49°   Ceiling: 8000
Heat Index: 49°   Visibility: 9mi
Dew Point: 44°   Wind: 0mph
Humidity: 83%   Direction: NA
Pressure: 29.59"   Gusts: NA
Location:  40.45°N, 74.48°W
Report Text: KSMQ 260853Z AUTO 00000KT 9SM SCT060 BKN080 09/07 A2959 RMK AO2 SLP019 T00940067 53006
Loading
Personal Weather Stations






























Interactive Weather Map
Tropical Storm Tracking
New forecast layout! Learn more

10-Day Weather Forecast

Advertisements
Track Severe Weather on mobile